createdAt,value
2022-09-09T00:00:19.173Z,10.62
2022-09-09T00:02:55.593Z,10.64
2022-09-09T00:05:32.003Z,10.67
2022-09-09T00:08:04.986Z,10.66
2022-09-09T00:10:36.391Z,10.67
2022-09-09T00:13:17.410Z,10.69
2022-09-09T00:15:58.001Z,10.70
2022-09-09T00:18:31.543Z,10.69
2022-09-09T00:21:08.679Z,10.66
2022-09-09T00:23:40.659Z,10.61
2022-09-09T00:26:16.628Z,10.62
2022-09-09T00:28:52.751Z,10.59
2022-09-09T00:31:27.722Z,10.58
2022-09-09T00:34:00.854Z,10.60
2022-09-09T00:36:30.524Z,10.62
2022-09-09T00:39:02.456Z,10.59
2022-09-09T00:41:43.513Z,10.59
2022-09-09T00:44:25.918Z,10.54
2022-09-09T00:47:07.177Z,10.57
2022-09-09T00:49:47.611Z,10.57
2022-09-09T00:52:28.614Z,10.59
2022-09-09T00:55:07.077Z,10.55
2022-09-09T00:57:36.990Z,10.58
2022-09-09T01:00:24.330Z,10.60
2022-09-09T01:03:13.341Z,10.61
2022-09-09T01:05:49.151Z,10.61
2022-09-09T01:08:35.849Z,10.58
2022-09-09T01:11:04.548Z,10.59
2022-09-09T01:13:36.817Z,10.59
2022-09-09T01:16:13.450Z,10.59
2022-09-09T01:18:48.565Z,10.59
2022-09-09T01:21:30.148Z,10.60
2022-09-09T01:24:15.392Z,10.59
2022-09-09T01:27:04.648Z,10.57
2022-09-09T01:29:34.563Z,10.58
2022-09-09T01:32:05.611Z,10.57
2022-09-09T01:34:39.796Z,10.56
2022-09-09T01:37:10.773Z,10.57
2022-09-09T01:39:44.936Z,10.55
2022-09-09T01:42:18.697Z,10.53
2022-09-09T01:44:47.769Z,10.51
2022-09-09T01:47:18.752Z,10.51
2022-09-09T01:50:10.144Z,10.48
2022-09-09T01:52:38.703Z,10.48
2022-09-09T01:55:12.623Z,10.47
2022-09-09T01:57:52.560Z,10.47
2022-09-09T02:00:21.222Z,10.46
2022-09-09T02:03:03.218Z,10.47
2022-09-09T02:06:01.140Z,10.45
2022-09-09T02:08:42.390Z,10.41
2022-09-09T02:11:16.391Z,10.42
2022-09-09T02:13:53.439Z,10.40
2022-09-09T02:16:27.205Z,10.42
2022-09-09T02:19:02.884Z,10.40
2022-09-09T02:21:47.615Z,10.40
2022-09-09T02:24:18.244Z,10.39
2022-09-09T02:26:56.832Z,10.38
2022-09-09T02:29:30.999Z,10.39
2022-09-09T02:32:06.584Z,10.39
2022-09-09T02:34:42.612Z,10.39
2022-09-09T02:37:13.168Z,10.37
2022-09-09T02:39:45.864Z,10.37
2022-09-09T02:42:18.040Z,10.34
2022-09-09T02:44:48.104Z,10.33
2022-09-09T02:47:32.586Z,10.33
2022-09-09T02:50:15.098Z,10.30
2022-09-09T02:52:53.289Z,10.29
2022-09-09T02:55:30.918Z,10.28
2022-09-09T02:58:01.704Z,10.27
2022-09-09T03:00:33.490Z,10.24
2022-09-09T03:03:05.257Z,10.20
2022-09-09T03:05:35.048Z,10.22
2022-09-09T03:08:04.474Z,10.23
2022-09-09T03:10:32.894Z,10.23
2022-09-09T03:13:01.776Z,10.22
2022-09-09T03:15:39.259Z,10.21
2022-09-09T03:18:10.366Z,10.20
2022-09-09T03:20:38.825Z,10.21
2022-09-09T03:23:07.429Z,10.20
2022-09-09T03:25:36.742Z,10.20
2022-09-09T03:28:05.122Z,10.18
2022-09-09T03:30:33.647Z,10.19
2022-09-09T03:33:05.022Z,10.18
2022-09-09T03:35:35.195Z,10.17
2022-09-09T03:38:05.238Z,10.15
2022-09-09T03:40:36.329Z,10.14
2022-09-09T03:43:05.095Z,10.12
2022-09-09T03:45:34.068Z,10.12
2022-09-09T03:48:05.352Z,10.11
2022-09-09T03:50:34.374Z,10.11
2022-09-09T03:53:02.740Z,10.11
2022-09-09T03:55:31.129Z,10.10
2022-09-09T03:58:01.422Z,10.07
2022-09-09T04:00:31.655Z,10.07
2022-09-09T04:03:00.210Z,10.07
2022-09-09T04:05:30.039Z,10.05
2022-09-09T04:07:58.395Z,10.04
2022-09-09T04:10:27.834Z,10.02
2022-09-09T04:12:57.388Z,10.02
2022-09-09T04:15:25.966Z,10.02
2022-09-09T04:17:54.361Z,10.00
2022-09-09T04:20:23.204Z,10.01
2022-09-09T04:22:53.283Z,9.98
2022-09-09T04:25:23.464Z,9.98
2022-09-09T04:27:55.979Z,9.98
2022-09-09T04:30:24.651Z,9.98
2022-09-09T04:32:53.337Z,9.99
2022-09-09T04:35:22.117Z,9.97
2022-09-09T04:37:51.100Z,9.99
2022-09-09T04:40:20.884Z,10.00
2022-09-09T04:42:50.651Z,10.02
2022-09-09T04:45:19.621Z,10.03
2022-09-09T04:47:48.404Z,10.06
2022-09-09T04:50:17.057Z,10.09
2022-09-09T04:52:49.154Z,10.12
2022-09-09T04:55:18.158Z,10.14
2022-09-09T04:57:49.364Z,10.19
2022-09-09T05:00:18.532Z,10.23
2022-09-09T05:02:47.387Z,10.29
2022-09-09T05:05:16.208Z,10.31
2022-09-09T05:07:44.748Z,10.37
2022-09-09T05:10:14.464Z,10.39
2022-09-09T05:12:44.031Z,10.45
2022-09-09T05:15:14.386Z,10.53
2022-09-09T05:17:43.351Z,10.61
2022-09-09T05:20:17.182Z,10.66
2022-09-09T05:22:46.136Z,10.74
2022-09-09T05:25:15.035Z,10.80
2022-09-09T05:27:43.554Z,10.86
2022-09-09T05:30:14.273Z,10.93
2022-09-09T05:32:43.142Z,10.99
2022-09-09T05:35:12.434Z,11.04
2022-09-09T05:37:41.690Z,11.11
2022-09-09T05:40:12.220Z,11.15
2022-09-09T05:42:41.808Z,11.20
2022-09-09T05:45:11.532Z,11.24
2022-09-09T05:47:42.604Z,11.34
2022-09-09T05:50:16.126Z,11.38
2022-09-09T05:52:45.668Z,11.43
2022-09-09T05:55:14.613Z,11.51
2022-09-09T05:57:43.658Z,11.61
2022-09-09T06:00:14.219Z,11.64
2022-09-09T06:02:44.639Z,11.71
2022-09-09T06:05:16.456Z,11.78
2022-09-09T06:07:45.919Z,11.87
2022-09-09T06:10:15.642Z,11.94
2022-09-09T06:12:44.116Z,12.02
2022-09-09T06:15:12.778Z,12.10
2022-09-09T06:17:42.680Z,12.19
2022-09-09T06:20:13.989Z,12.28
2022-09-09T06:22:43.067Z,12.35
2022-09-09T06:25:12.047Z,12.42
2022-09-09T06:27:41.794Z,12.46
2022-09-09T06:30:12.327Z,12.50
2022-09-09T06:32:40.809Z,12.52
2022-09-09T06:35:09.874Z,12.56
2022-09-09T06:37:39.754Z,12.57
2022-09-09T06:40:09.524Z,12.60
2022-09-09T06:42:38.737Z,12.64
2022-09-09T06:45:22.677Z,12.72
2022-09-09T06:47:57.745Z,12.81
2022-09-09T06:50:26.753Z,12.90
2022-09-09T06:52:56.659Z,12.96
2022-09-09T06:55:25.419Z,13.01
2022-09-09T06:57:54.096Z,13.10
2022-09-09T07:00:25.793Z,13.16
2022-09-09T07:02:54.309Z,13.16
2022-09-09T07:05:23.102Z,13.22
2022-09-09T07:07:54.137Z,13.26
2022-09-09T07:10:24.721Z,13.33
2022-09-09T07:12:54.351Z,13.39
2022-09-09T07:15:26.021Z,13.50
2022-09-09T07:17:55.924Z,13.60
2022-09-09T07:20:24.378Z,13.60
2022-09-09T07:22:57.215Z,13.61
2022-09-09T07:25:29.050Z,13.66
2022-09-09T07:27:58.472Z,13.64
2022-09-09T07:30:28.106Z,13.64
2022-09-09T07:32:59.472Z,13.71
2022-09-09T07:35:28.101Z,13.82
2022-09-09T07:37:57.224Z,13.88
2022-09-09T07:40:27.426Z,13.94
2022-09-09T07:42:55.907Z,14.01
2022-09-09T07:45:24.547Z,14.07
2022-09-09T07:47:53.759Z,14.11
2022-09-09T07:50:22.817Z,14.33
2022-09-09T07:52:51.685Z,14.69
2022-09-09T07:55:20.684Z,14.83
2022-09-09T07:57:50.634Z,14.91
2022-09-09T08:00:21.483Z,14.87
2022-09-09T08:02:55.293Z,14.88
2022-09-09T08:05:24.825Z,15.25
2022-09-09T08:07:53.335Z,15.63
2022-09-09T08:10:22.364Z,15.80
2022-09-09T08:13:14.682Z,15.89
2022-09-09T08:15:44.517Z,15.92
2022-09-09T08:18:13.558Z,15.88
2022-09-09T08:20:41.992Z,15.91
2022-09-09T08:23:10.561Z,15.88
2022-09-09T08:25:38.957Z,15.87
2022-09-09T08:28:08.901Z,15.83
2022-09-09T13:00:25.248Z,19.14
2022-09-09T13:02:55.210Z,19.09
2022-09-09T13:05:26.826Z,18.96
2022-09-09T13:08:04.167Z,18.89
2022-09-09T13:10:51.647Z,18.73
2022-09-09T13:13:25.474Z,18.56
2022-09-09T13:15:57.598Z,18.53
2022-09-09T13:18:29.163Z,18.42
2022-09-09T13:20:59.196Z,18.37
2022-09-09T13:23:30.707Z,18.32
2022-09-09T13:26:01.740Z,18.27
2022-09-09T13:28:33.683Z,18.18
2022-09-09T13:31:08.153Z,18.05
2022-09-09T13:33:38.432Z,17.94
2022-09-09T13:36:09.437Z,17.93
2022-09-09T13:38:40.543Z,17.90
2022-09-09T13:41:11.378Z,17.89
2022-09-09T13:43:44.284Z,17.73
2022-09-09T13:46:29.182Z,17.59
2022-09-09T13:48:58.204Z,17.60
2022-09-09T13:51:38.148Z,17.55
2022-09-09T13:54:08.415Z,17.52
2022-09-09T13:56:37.794Z,17.52
2022-09-09T13:59:09.188Z,17.48
2022-09-09T14:01:39.013Z,17.48
2022-09-09T14:04:07.581Z,17.50
2022-09-09T14:06:38.319Z,17.48
2022-09-09T14:09:07.142Z,17.45
2022-09-09T14:11:35.599Z,17.43
2022-09-09T14:14:04.041Z,17.36
2022-09-09T14:16:32.555Z,17.36
2022-09-09T14:19:02.717Z,17.35
2022-09-09T14:21:31.134Z,17.33
2022-09-09T14:24:00.135Z,17.31
2022-09-09T14:26:30.015Z,17.25
2022-09-09T14:28:58.986Z,17.20
2022-09-09T14:31:28.003Z,17.13
2022-09-09T14:33:56.476Z,17.11
2022-09-09T14:36:26.912Z,17.08
2022-09-09T14:38:55.317Z,16.96
2022-09-09T14:41:24.516Z,16.93
2022-09-09T14:43:53.087Z,16.88
2022-09-09T14:46:22.609Z,16.81
2022-09-09T14:48:51.466Z,16.74
2022-09-09T14:51:23.314Z,16.69
2022-09-09T14:53:56.365Z,16.64
2022-09-09T21:21:37.924Z,11.82
2022-09-09T21:24:06.897Z,11.81
2022-09-09T21:26:35.626Z,11.80
2022-09-09T21:29:04.240Z,11.78
2022-09-09T21:31:33.000Z,11.77
2022-09-09T21:34:01.600Z,11.75
2022-09-09T21:36:30.017Z,11.75
2022-09-09T21:38:59.839Z,11.73
2022-09-09T21:41:28.653Z,11.72
2022-09-09T21:43:57.114Z,11.70
2022-09-09T21:46:26.758Z,11.68
2022-09-09T21:48:57.180Z,11.66
2022-09-09T21:51:26.101Z,11.65
2022-09-09T21:53:57.134Z,11.63
2022-09-09T21:56:27.007Z,11.59
2022-09-09T21:59:03.864Z,11.57
2022-09-09T22:01:34.502Z,11.55
2022-09-09T22:04:03.792Z,11.54
2022-09-09T22:06:32.375Z,11.51
2022-09-09T22:09:01.886Z,11.47
2022-09-09T22:11:31.827Z,11.44
2022-09-09T22:14:00.484Z,11.42
2022-09-09T22:16:28.915Z,11.41
2022-09-09T22:18:59.350Z,11.40
2022-09-09T22:21:30.023Z,11.39
2022-09-09T22:24:01.132Z,11.36
2022-09-09T22:26:33.190Z,11.36
2022-09-09T22:29:01.908Z,11.33
2022-09-09T22:31:30.413Z,11.32
2022-09-09T22:33:59.021Z,11.30
2022-09-09T22:36:27.604Z,11.27
2022-09-09T22:38:56.934Z,11.25
2022-09-09T22:41:26.236Z,11.20
2022-09-09T22:43:56.139Z,11.16
2022-09-09T22:46:24.604Z,11.12
2022-09-09T22:48:53.096Z,11.09
2022-09-09T22:51:21.480Z,11.05
2022-09-09T22:53:50.008Z,11.00
2022-09-09T22:56:20.840Z,10.99
2022-09-09T22:58:55.808Z,10.96
2022-09-09T23:01:27.453Z,10.94
2022-09-09T23:03:59.700Z,10.90
2022-09-09T23:06:29.674Z,10.88
2022-09-09T23:09:01.120Z,10.85
2022-09-09T23:11:31.987Z,10.84
2022-09-09T23:14:02.406Z,10.83
2022-09-09T23:16:34.520Z,10.84
2022-09-09T23:19:03.040Z,10.81
2022-09-09T23:21:32.441Z,10.81
2022-09-09T23:24:01.354Z,10.79
2022-09-09T23:26:30.108Z,10.76
2022-09-09T23:29:00.218Z,10.72
2022-09-09T23:31:31.012Z,10.69
2022-09-09T23:34:01.938Z,10.67
2022-09-09T23:36:31.089Z,10.64
2022-09-09T23:39:00.463Z,10.60
2022-09-09T23:41:29.054Z,10.60
2022-09-09T23:43:57.881Z,10.60
2022-09-09T23:46:28.698Z,10.60
2022-09-09T23:48:58.581Z,10.58
2022-09-09T23:51:30.683Z,10.57
2022-09-09T23:54:03.080Z,10.57
2022-09-09T23:56:33.968Z,10.55
2022-09-09T23:59:02.548Z,10.52
